Time;durP1;ratioP1;P1;durP2;ratioP2;P2;SDS_P1;SDS_P2;PMS_P1;PMS_P2;Temp;Humidity;BMP_temperature;BMP_pressure;BME280_temperature;BME280_humidity;BME280_pressure;Samples;Min_cycle;Max_cycle;Signal;HPM_P1;HPM_P2
2022/06/11 00:00:38;;;;;;;20.67;17.48;;;17.40;99.90;;;;;;5019029;28;20741;-84
2022/06/11 00:03:03;;;;;;;20.63;17.42;;;17.20;99.90;;;;;;5028804;28;20072;-84
2022/06/11 00:05:29;;;;;;;17.52;15.40;;;17.30;99.90;;;;;;5012688;28;20046;-84
2022/06/11 00:07:57;;;;;;;17.88;15.23;;;17.30;99.90;;;;;;4996795;28;20080;-84
2022/06/11 00:10:23;;;;;;;17.60;14.98;;;17.20;99.90;;;;;;5028483;28;20095;-83
2022/06/11 00:12:49;;;;;;;16.02;13.60;;;17.20;99.90;;;;;;5017692;28;20038;-84
2022/06/11 00:15:15;;;;;;;15.45;12.73;;;17.20;99.90;;;;;;4996752;28;20055;-84
2022/06/11 00:17:41;;;;;;;15.20;12.10;;;17.10;99.90;;;;;;5037600;28;20049;-84
2022/06/11 00:20:09;;;;;;;13.05;11.18;;;17.10;99.90;;;;;;5012738;28;20052;-83
2022/06/11 00:22:35;;;;;;;15.02;10.25;;;17.00;99.90;;;;;;5010244;28;20080;-83
2022/06/11 00:25:01;;;;;;;15.32;11.48;;;17.10;99.90;;;;;;4993800;28;20140;-83
2022/06/11 00:27:26;;;;;;;13.52;10.55;;;17.00;99.90;;;;;;5013112;28;20111;-83
2022/06/11 00:29:52;;;;;;;11.82;10.38;;;17.00;99.90;;;;;;5013617;28;20049;-84
2022/06/11 00:32:18;;;;;;;14.32;11.20;;;16.90;99.90;;;;;;5013046;28;20120;-84
2022/06/11 00:34:45;;;;;;;14.35;11.18;;;16.90;99.90;;;;;;5028899;28;20049;-84
2022/06/11 00:37:13;;;;;;;16.85;11.45;;;16.90;99.90;;;;;;5030628;28;20060;-84
2022/06/11 00:39:39;;;;;;;14.93;10.15;;;16.80;99.90;;;;;;5033544;28;20478;-84
2022/06/11 00:42:25;;;;;;;15.63;11.02;;;16.80;99.90;;;;;;4996984;28;20047;-84
2022/06/11 00:45:12;;;;;;;14.90;12.27;;;16.80;99.90;;;;;;4997165;28;20136;-84
2022/06/11 00:47:38;;;;;;;14.95;12.38;;;16.70;99.90;;;;;;5030674;28;20053;-84
2022/06/11 00:50:22;;;;;;;15.88;12.45;;;16.70;99.90;;;;;;5012738;28;20045;-84
2022/06/11 00:52:49;;;;;;;15.20;12.27;;;16.60;99.90;;;;;;5011309;28;20065;-84
2022/06/11 00:55:27;;;;;;;17.33;13.07;;;16.50;99.90;;;;;;5030026;28;20056;-84
2022/06/11 00:57:54;;;;;;;16.92;12.30;;;16.50;99.90;;;;;;5015110;28;20053;-84
2022/06/11 01:00:26;;;;;;;14.93;13.20;;;16.50;99.90;;;;;;5039824;28;20045;-84
2022/06/11 01:02:52;;;;;;;16.05;12.18;;;16.40;99.90;;;;;;5030646;28;20037;-84
2022/06/11 01:05:28;;;;;;;16.35;12.02;;;16.40;99.90;;;;;;5012460;28;20103;-85
2022/06/11 01:08:21;;;;;;;15.70;12.52;;;16.40;99.90;;;;;;5027243;28;20358;-84
2022/06/11 01:11:10;;;;;;;16.10;12.35;;;16.40;99.90;;;;;;5011912;28;20057;-84
2022/06/11 01:13:53;;;;;;;17.30;11.65;;;16.30;99.90;;;;;;5023756;28;20041;-84
2022/06/11 01:16:56;;;;;;;14.90;11.82;;;16.30;99.90;;;;;;5028303;28;20113;-84
2022/06/11 01:19:36;;;;;;;15.65;12.20;;;16.40;99.90;;;;;;5023862;28;20084;-84
2022/06/11 01:22:38;;;;;;;16.17;11.80;;;16.40;99.90;;;;;;5010707;28;20042;-84
2022/06/11 01:25:27;;;;;;;15.40;11.93;;;16.40;99.90;;;;;;5028596;28;20049;-85
2022/06/11 01:28:26;;;;;;;14.85;11.50;;;16.30;99.90;;;;;;5028139;28;20149;-84
2022/06/11 01:30:57;;;;;;;15.35;12.15;;;16.30;99.90;;;;;;5030595;28;20048;-84
2022/06/11 01:33:37;;;;;;;18.05;12.45;;;16.20;99.90;;;;;;5008775;28;20077;-85
2022/06/11 01:36:05;;;;;;;14.75;12.95;;;16.20;99.90;;;;;;5010371;28;20038;-85
2022/06/11 01:39:03;;;;;;;15.88;12.45;;;16.20;99.90;;;;;;5026556;28;20052;-84
2022/06/11 01:41:50;;;;;;;17.77;13.10;;;16.10;99.90;;;;;;5028189;28;20045;-85
2022/06/11 01:44:29;;;;;;;15.02;12.98;;;16.00;99.90;;;;;;5034551;28;20045;-85
2022/06/11 01:46:56;;;;;;;15.65;12.30;;;16.00;99.90;;;;;;5029108;28;20139;-85
2022/06/11 01:49:22;;;;;;;18.02;13.85;;;15.90;99.90;;;;;;5009307;28;20402;-84
2022/06/11 01:52:09;;;;;;;16.48;13.57;;;15.90;99.90;;;;;;5010789;28;20049;-84
2022/06/11 01:54:35;;;;;;;16.77;12.43;;;15.90;99.90;;;;;;5027361;28;20510;-84
2022/06/11 01:57:22;;;;;;;14.77;11.73;;;15.80;99.90;;;;;;5029871;28;20052;-84
2022/06/11 02:00:21;;;;;;;15.73;12.18;;;15.70;99.90;;;;;;5028220;28;20132;-83
2022/06/11 02:03:09;;;;;;;15.63;12.75;;;15.70;99.90;;;;;;5027862;28;20049;-82
2022/06/11 02:05:53;;;;;;;14.85;12.25;;;15.60;99.90;;;;;;5009913;28;20084;-82
2022/06/11 02:08:37;;;;;;;14.25;12.75;;;15.60;99.90;;;;;;5010852;28;20132;-83
2022/06/11 02:11:23;;;;;;;14.25;12.25;;;15.60;99.90;;;;;;5010661;28;20047;-82
2022/06/11 02:14:12;;;;;;;16.55;12.18;;;15.60;99.90;;;;;;5011120;28;20096;-82
2022/06/11 02:16:55;;;;;;;14.80;12.40;;;15.60;99.90;;;;;;5025495;28;20058;-82
2022/06/11 02:19:28;;;;;;;15.43;13.27;;;15.60;99.90;;;;;;5027246;28;20091;-82
2022/06/11 02:22:02;;;;;;;15.20;12.88;;;15.60;99.90;;;;;;5028031;28;20053;-82
2022/06/11 02:25:00;;;;;;;14.65;12.52;;;15.70;99.90;;;;;;5026675;28;20556;-82
2022/06/11 02:27:29;;;;;;;14.25;12.75;;;15.70;99.90;;;;;;4995039;28;20053;-82
2022/06/11 02:29:56;;;;;;;16.98;13.68;;;15.80;99.90;;;;;;5018609;28;20057;-83
2022/06/11 02:32:26;;;;;;;15.30;13.32;;;15.80;99.90;;;;;;5029174;28;20045;-82
2022/06/11 02:35:00;;;;;;;16.07;12.97;;;15.80;99.90;;;;;;5011408;28;20071;-82
2022/06/11 02:37:46;;;;;;;15.20;12.98;;;15.80;99.90;;;;;;5028588;28;20049;-82
2022/06/11 02:40:18;;;;;;;15.85;12.30;;;15.80;99.90;;;;;;5011458;28;20059;-82
2022/06/11 02:42:45;;;;;;;17.05;12.63;;;15.80;99.90;;;;;;5028311;28;20057;-82
2022/06/11 02:45:13;;;;;;;17.58;13.13;;;15.80;99.90;;;;;;5029107;28;20049;-82
2022/06/11 02:47:41;;;;;;;17.02;12.68;;;15.70;99.90;;;;;;5028601;28;20069;-82
2022/06/11 02:50:07;;;;;;;16.92;13.05;;;15.70;99.90;;;;;;5010148;28;20127;-82
2022/06/11 02:52:33;;;;;;;16.27;12.48;;;15.70;99.90;;;;;;5010763;28;20054;-82
2022/06/11 02:54:59;;;;;;;18.77;13.25;;;15.70;99.90;;;;;;5029132;28;20385;-82
2022/06/11 02:57:29;;;;;;;15.57;12.52;;;15.70;99.90;;;;;;5028092;28;20088;-82
2022/06/11 02:59:56;;;;;;;15.38;12.57;;;15.70;99.90;;;;;;5011365;28;20045;-82
2022/06/11 03:02:23;;;;;;;17.30;12.18;;;15.70;99.90;;;;;;5010805;28;20057;-82
2022/06/11 03:04:50;;;;;;;16.50;12.63;;;15.80;99.90;;;;;;5040022;28;20044;-82
2022/06/11 03:07:17;;;;;;;16.50;12.68;;;15.70;99.90;;;;;;5048707;28;20041;-82
2022/06/11 03:09:44;;;;;;;16.65;12.88;;;15.70;99.90;;;;;;4999313;28;20221;-82
2022/06/11 03:12:12;;;;;;;16.30;13.70;;;15.70;99.90;;;;;;5010890;28;20088;-82
2022/06/11 03:14:38;;;;;;;18.42;14.18;;;15.70;99.90;;;;;;5010765;28;20133;-82
2022/06/11 03:17:05;;;;;;;18.92;14.85;;;15.60;99.90;;;;;;5012940;28;20030;-82
2022/06/11 03:19:31;;;;;;;17.77;15.82;;;15.60;99.90;;;;;;5024088;28;20079;-82
2022/06/11 03:21:57;;;;;;;19.08;16.77;;;15.60;99.90;;;;;;5032983;28;20127;-83
2022/06/11 03:24:24;;;;;;;21.13;17.25;;;15.70;99.90;;;;;;5032496;28;20085;-82
2022/06/11 03:26:50;;;;;;;19.23;17.27;;;15.60;99.90;;;;;;5025798;28;20041;-82
2022/06/11 03:29:17;;;;;;;20.15;17.42;;;15.60;99.90;;;;;;5013640;28;20391;-82
2022/06/11 03:31:45;;;;;;;21.15;16.50;;;15.60;99.90;;;;;;5030916;28;20111;-82
2022/06/11 03:34:11;;;;;;;20.23;16.65;;;15.50;99.90;;;;;;5012829;28;20506;-82
2022/06/11 03:36:37;;;;;;;18.83;15.18;;;15.50;99.90;;;;;;5013906;28;20479;-82
2022/06/11 03:39:04;;;;;;;17.17;14.68;;;15.50;99.90;;;;;;5000650;28;20079;-82
2022/06/11 03:41:30;;;;;;;19.98;15.23;;;15.50;99.90;;;;;;5033892;28;20049;-82
2022/06/11 03:43:55;;;;;;;17.20;14.25;;;15.40;99.90;;;;;;5035698;28;20125;-82
2022/06/11 03:46:21;;;;;;;18.23;14.57;;;15.40;99.90;;;;;;5012245;28;20371;-82
2022/06/11 03:48:47;;;;;;;18.10;13.20;;;15.40;99.90;;;;;;4993902;28;20042;-82
2022/06/11 03:51:14;;;;;;;16.27;12.60;;;15.40;99.90;;;;;;5012194;28;20372;-82
2022/06/11 03:53:41;;;;;;;18.33;11.95;;;15.50;99.90;;;;;;5013974;28;20048;-82
2022/06/11 03:56:08;;;;;;;15.32;11.35;;;15.50;99.90;;;;;;5014183;28;20045;-82
2022/06/11 03:58:35;;;;;;;15.73;10.90;;;15.50;99.90;;;;;;5013648;28;20075;-82
2022/06/11 04:01:18;;;;;;;16.23;10.57;;;15.50;99.90;;;;;;4997519;28;20092;-82
2022/06/11 04:03:48;;;;;;;14.95;9.90;;;15.60;99.90;;;;;;4996775;28;20053;-82
2022/06/11 04:06:15;;;;;;;16.13;9.35;;;15.50;99.90;;;;;;5014180;28;20478;-82
2022/06/11 04:08:41;;;;;;;15.65;9.40;;;15.60;99.90;;;;;;5035532;28;20386;-82
2022/06/11 04:11:08;;;;;;;14.82;9.25;;;15.60;99.90;;;;;;5033515;28;20036;-82
2022/06/11 04:13:37;;;;;;;14.30;8.15;;;15.60;99.90;;;;;;5008178;28;20041;-82
2022/06/11 04:16:04;;;;;;;16.55;8.10;;;15.50;99.90;;;;;;5032533;28;20073;-83
2022/06/11 04:18:39;;;;;;;17.20;7.63;;;15.60;99.90;;;;;;5030940;28;20383;-82
2022/06/11 04:21:09;;;;;;;13.55;7.25;;;15.60;99.90;;;;;;5013420;28;20052;-82
2022/06/11 04:23:37;;;;;;;15.75;6.75;;;15.60;99.90;;;;;;5030825;28;20053;-82
2022/06/11 04:26:08;;;;;;;12.63;6.55;;;15.60;99.90;;;;;;5031084;28;20056;-82
2022/06/11 04:28:34;;;;;;;13.63;6.15;;;15.60;99.90;;;;;;5019568;28;20045;-82
2022/06/11 04:31:03;;;;;;;12.18;5.45;;;15.60;99.90;;;;;;5033069;28;20063;-81
2022/06/11 04:33:29;;;;;;;12.63;5.53;;;15.60;99.90;;;;;;5028639;28;20068;-83
2022/06/11 04:35:54;;;;;;;15.15;6.05;;;15.70;99.90;;;;;;5031386;28;20071;-83
2022/06/11 04:38:20;;;;;;;14.13;5.28;;;15.70;99.90;;;;;;5031077;28;20684;-82
2022/06/11 04:40:47;;;;;;;13.98;5.20;;;15.70;99.90;;;;;;5030597;28;20064;-82
2022/06/11 04:43:13;;;;;;;13.65;5.00;;;15.70;99.90;;;;;;5034361;28;20090;-83
2022/06/11 04:45:39;;;;;;;15.13;4.85;;;15.70;99.90;;;;;;5016921;28;20919;-82
2022/06/11 04:48:05;;;;;;;15.15;4.78;;;15.70;99.90;;;;;;5012526;28;20091;-82
2022/06/11 04:50:32;;;;;;;14.40;4.88;;;15.80;99.90;;;;;;5029303;28;20041;-83
2022/06/11 04:52:57;;;;;;;14.07;4.60;;;15.80;99.90;;;;;;5011937;28;20052;-83
2022/06/11 04:55:23;;;;;;;13.20;4.40;;;15.80;99.90;;;;;;5012577;28;20405;-84
2022/06/11 04:57:49;;;;;;;15.98;4.28;;;15.90;99.90;;;;;;5030649;28;20082;-83
2022/06/11 05:00:20;;;;;;;10.85;3.95;;;15.90;99.90;;;;;;5009822;28;20092;-88
2022/06/11 05:02:47;;;;;;;13.27;4.25;;;15.90;99.90;;;;;;5029803;28;20088;-88
2022/06/11 05:05:13;;;;;;;14.57;4.88;;;16.00;99.90;;;;;;5015290;28;20119;-87
2022/06/11 05:07:40;;;;;;;12.93;5.00;;;16.00;99.90;;;;;;5027896;28;20486;-86
2022/06/11 05:10:06;;;;;;;15.30;4.70;;;16.00;99.90;;;;;;5031595;28;20045;-87
2022/06/11 05:12:32;;;;;;;13.10;4.55;;;16.10;99.90;;;;;;5010774;28;20114;-86
2022/06/11 05:14:58;;;;;;;14.13;4.60;;;16.10;99.90;;;;;;5010667;28;20525;-87
2022/06/11 05:17:23;;;;;;;12.85;4.57;;;16.10;99.90;;;;;;5022564;28;20041;-86
2022/06/11 05:19:49;;;;;;;11.98;4.32;;;16.20;99.90;;;;;;5027031;28;20175;-86
2022/06/11 05:22:15;;;;;;;13.07;4.45;;;16.20;99.90;;;;;;5012478;28;20053;-83
2022/06/11 05:24:40;;;;;;;12.55;4.50;;;16.20;99.90;;;;;;5019785;28;20059;-84
2022/06/11 05:27:16;;;;;;;14.65;4.80;;;16.30;99.90;;;;;;5046799;28;20044;-85
2022/06/11 05:29:52;;;;;;;11.88;4.43;;;16.30;99.90;;;;;;5009122;28;20060;-93
2022/06/11 05:32:23;;;;;;;14.70;4.90;;;16.30;99.90;;;;;;4979784;28;20395;-87
2022/06/11 05:34:49;;;;;;;13.00;4.75;;;16.40;99.90;;;;;;5010523;28;20516;-86
2022/06/11 05:37:17;;;;;;;12.02;4.50;;;16.40;99.90;;;;;;5010378;28;20037;-87
2022/06/11 05:39:46;;;;;;;13.13;4.80;;;16.50;99.90;;;;;;5006074;28;20046;-86
2022/06/11 05:42:12;;;;;;;14.20;4.65;;;16.50;99.90;;;;;;5011857;28;20525;-87
2022/06/11 05:44:38;;;;;;;14.73;4.82;;;16.60;99.90;;;;;;5010685;28;20421;-88
2022/06/11 05:47:04;;;;;;;15.13;5.38;;;16.60;99.90;;;;;;5030065;28;20048;-87
2022/06/11 05:49:37;;;;;;;16.33;5.18;;;16.70;99.90;;;;;;5029010;28;20073;-83
2022/06/11 05:52:10;;;;;;;14.57;4.70;;;16.70;99.90;;;;;;5029344;28;20048;-83
2022/06/11 05:54:37;;;;;;;11.98;4.70;;;16.80;99.90;;;;;;5004091;28;20425;-83
2022/06/11 05:57:06;;;;;;;16.38;4.93;;;16.80;99.90;;;;;;5017572;28;20049;-85
2022/06/11 05:59:38;;;;;;;14.60;4.82;;;16.80;99.90;;;;;;5010912;28;20041;-82
2022/06/11 06:02:10;;;;;;;14.57;5.07;;;16.90;99.90;;;;;;5010420;28;20056;-82
2022/06/11 06:04:36;;;;;;;15.68;5.22;;;16.90;99.90;;;;;;5028601;28;20045;-81
2022/06/11 06:07:02;;;;;;;18.10;5.63;;;17.00;99.90;;;;;;5011551;28;20037;-81
2022/06/11 06:09:28;;;;;;;13.70;4.80;;;17.10;99.90;;;;;;5022322;28;20551;-82
2022/06/11 06:11:53;;;;;;;12.82;4.65;;;17.10;99.90;;;;;;5027697;28;20727;-82
2022/06/11 06:14:19;;;;;;;15.70;4.97;;;17.10;99.90;;;;;;5024950;28;20073;-83
2022/06/11 06:16:44;;;;;;;14.07;5.57;;;17.20;99.90;;;;;;5006025;28;20478;-83
2022/06/11 06:19:10;;;;;;;13.90;4.97;;;17.20;99.90;;;;;;5025282;28;20045;-84
2022/06/11 06:21:37;;;;;;;17.25;5.07;;;17.30;99.90;;;;;;5008133;28;20433;-84
2022/06/11 06:24:04;;;;;;;16.38;5.50;;;17.30;99.90;;;;;;5007462;28;20733;-84
2022/06/11 06:26:30;;;;;;;16.00;5.10;;;17.40;99.90;;;;;;5008437;28;20126;-85
2022/06/11 06:28:55;;;;;;;17.70;5.13;;;17.50;99.90;;;;;;5021645;28;20574;-83
2022/06/11 06:31:21;;;;;;;16.42;4.70;;;17.50;99.90;;;;;;5024185;28;20049;-88
2022/06/11 06:33:47;;;;;;;18.02;5.22;;;17.50;99.90;;;;;;5008683;28;20516;-86
2022/06/11 06:36:14;;;;;;;16.45;5.22;;;17.50;99.90;;;;;;5026384;28;20506;-93
2022/06/11 06:38:42;;;;;;;16.48;5.40;;;17.50;99.90;;;;;;4993370;28;20049;-89
2022/06/11 06:41:07;;;;;;;16.98;4.90;;;17.50;99.90;;;;;;5008847;28;20050;-88
2022/06/11 06:43:34;;;;;;;15.85;6.35;;;17.60;99.90;;;;;;5027385;28;20087;-89
2022/06/11 06:46:00;;;;;;;16.42;5.43;;;17.70;99.90;;;;;;5019948;28;20041;-92
2022/06/11 06:48:26;;;;;;;16.40;4.93;;;17.70;99.90;;;;;;5011413;28;20038;-87
2022/06/11 06:50:53;;;;;;;17.80;5.22;;;17.70;99.90;;;;;;5044019;28;20113;-89
2022/06/11 06:53:25;;;;;;;17.90;5.50;;;17.60;99.90;;;;;;5014589;28;20079;-91
2022/06/11 06:55:51;;;;;;;16.92;5.45;;;17.70;99.90;;;;;;5000486;28;20037;-91
2022/06/11 06:58:17;;;;;;;14.32;4.90;;;17.80;99.90;;;;;;5001926;28;20413;-89
2022/06/11 07:00:44;;;;;;;15.32;5.40;;;17.80;99.90;;;;;;5012254;28;20045;-94
2022/06/11 07:03:12;;;;;;;15.85;4.75;;;17.80;99.90;;;;;;5030096;28;20033;-88
2022/06/11 07:05:39;;;;;;;19.77;5.97;;;17.90;99.90;;;;;;5027796;28;20050;-93
2022/06/11 07:08:06;;;;;;;16.67;5.65;;;17.90;99.90;;;;;;5030351;28;20038;-87
2022/06/11 07:10:32;;;;;;;18.77;5.32;;;18.00;99.90;;;;;;5016883;28;20060;-88
2022/06/11 07:12:58;;;;;;;21.40;5.50;;;18.00;99.90;;;;;;5004313;28;20704;-86
2022/06/11 07:15:25;;;;;;;18.20;5.68;;;18.00;99.90;;;;;;5004030;28;20136;-88
2022/06/11 07:18:04;;;;;;;19.20;5.28;;;18.10;99.90;;;;;;5021308;28;20049;-88
2022/06/11 07:20:32;;;;;;;15.43;4.75;;;18.20;99.90;;;;;;5020798;28;20079;-89
2022/06/11 07:23:13;;;;;;;15.88;4.90;;;18.20;99.90;;;;;;5038576;28;20053;-90
2022/06/11 07:25:41;;;;;;;19.08;5.00;;;18.20;99.90;;;;;;5041465;28;20058;-92
2022/06/11 07:28:21;;;;;;;16.13;4.78;;;18.30;99.90;;;;;;5019245;28;20297;-89
2022/06/11 07:30:47;;;;;;;17.05;5.35;;;18.30;99.90;;;;;;5016654;28;20041;-90
2022/06/11 07:33:19;;;;;;;15.95;5.40;;;18.30;99.90;;;;;;5004080;28;20056;-88
2022/06/11 07:35:48;;;;;;;14.80;5.28;;;18.60;99.90;;;;;;5017682;28;20049;-87
2022/06/11 07:38:15;;;;;;;17.95;5.53;;;18.50;99.90;;;;;;5017896;28;20052;-86
2022/06/11 07:40:41;;;;;;;22.60;5.57;;;18.50;99.90;;;;;;5018322;28;20083;-90
2022/06/11 07:43:08;;;;;;;15.65;5.03;;;18.70;99.90;;;;;;5022797;28;20033;-86
2022/06/11 07:45:35;;;;;;;20.45;5.85;;;18.70;99.90;;;;;;5039155;28;20046;-85
2022/06/11 07:48:01;;;;;;;16.75;4.88;;;18.80;99.90;;;;;;5035929;28;20065;-85
2022/06/11 07:50:31;;;;;;;20.35;6.72;;;18.70;99.90;;;;;;5001641;28;20103;-84
2022/06/11 07:52:58;;;;;;;20.20;5.50;;;18.70;99.90;;;;;;5035956;28;20050;-84
2022/06/11 07:55:26;;;;;;;20.00;6.15;;;18.80;99.90;;;;;;5004782;28;20041;-86
2022/06/11 07:57:52;;;;;;;19.52;5.70;;;18.80;99.90;;;;;;5000478;28;20049;-87
2022/06/11 08:00:22;;;;;;;18.42;5.13;;;18.80;99.90;;;;;;5001947;28;20094;-80
2022/06/11 08:02:48;;;;;;;21.02;5.80;;;19.00;99.90;;;;;;5002387;28;20046;-83
2022/06/11 08:05:15;;;;;;;17.52;5.82;;;18.90;99.90;;;;;;5019449;28;20154;-84
2022/06/11 08:07:40;;;;;;;19.15;5.30;;;18.90;99.90;;;;;;5018208;28;20042;-85
2022/06/11 08:10:07;;;;;;;18.55;5.80;;;18.80;99.90;;;;;;5016809;28;20136;-85
2022/06/11 08:12:33;;;;;;;17.83;5.43;;;18.80;99.90;;;;;;5032526;28;20037;-82
2022/06/11 08:14:59;;;;;;;18.38;5.50;;;18.90;99.90;;;;;;5034638;28;20084;-82
2022/06/11 08:17:27;;;;;;;19.13;5.22;;;18.90;99.90;;;;;;5030010;28;20081;-83
2022/06/11 08:19:53;;;;;;;19.75;6.03;;;18.90;99.90;;;;;;5037284;28;20045;-83
2022/06/11 08:22:20;;;;;;;16.30;5.40;;;19.00;99.90;;;;;;5017927;28;20042;-83
2022/06/11 08:24:46;;;;;;;22.10;5.93;;;19.00;99.90;;;;;;5035179;28;20065;-82
2022/06/11 08:27:11;;;;;;;18.02;4.70;;;19.10;99.90;;;;;;5036024;28;20053;-82
2022/06/11 08:29:37;;;;;;;18.83;5.53;;;19.10;99.90;;;;;;5035250;28;20050;-81
2022/06/11 08:32:05;;;;;;;18.35;5.20;;;19.20;99.90;;;;;;5001249;28;20046;-81
2022/06/11 08:34:38;;;;;;;18.85;5.15;;;19.30;99.90;;;;;;5035050;28;20389;-83
2022/06/11 08:37:04;;;;;;;18.98;5.10;;;19.30;99.90;;;;;;5036989;28;20049;-81
2022/06/11 08:39:30;;;;;;;17.50;4.68;;;19.30;99.90;;;;;;5017727;28;20046;-83
2022/06/11 08:41:59;;;;;;;16.65;4.60;;;19.40;99.90;;;;;;5018067;28;20128;-84
2022/06/11 08:44:26;;;;;;;20.02;5.60;;;19.50;99.90;;;;;;5035975;28;20120;-83
2022/06/11 08:46:52;;;;;;;17.50;4.82;;;19.60;99.90;;;;;;5035620;28;20041;-83
2022/06/11 08:49:37;;;;;;;17.10;4.88;;;19.60;99.90;;;;;;5029310;28;20099;-82
2022/06/11 08:52:22;;;;;;;20.13;5.10;;;19.70;99.90;;;;;;5027017;28;20102;-81
2022/06/11 08:54:48;;;;;;;16.73;5.22;;;19.90;99.90;;;;;;5027418;28;20510;-82
2022/06/11 08:58:00;;;;;;;19.00;7.15;;;19.90;99.90;;;;;;5009856;28;20145;-81
2022/06/11 09:00:36;;;;;;;18.38;6.28;;;19.90;99.90;;;;;;4995817;28;20124;-83
2022/06/11 09:03:48;;;;;;;15.60;5.10;;;20.00;99.90;;;;;;5035201;28;20064;-82
2022/06/11 09:06:41;;;;;;;17.05;4.75;;;20.20;99.90;;;;;;5013830;28;20061;-83
2022/06/11 09:09:24;;;;;;;16.70;5.15;;;20.20;99.90;;;;;;5035109;28;20489;-83
2022/06/11 09:12:05;;;;;;;15.43;4.13;;;20.30;99.90;;;;;;5017472;28;20053;-84
2022/06/11 09:14:39;;;;;;;16.33;4.20;;;20.50;99.90;;;;;;5038150;28;20105;-82
2022/06/11 09:17:17;;;;;;;13.45;4.00;;;20.50;99.90;;;;;;5033629;28;20546;-83
2022/06/11 09:20:10;;;;;;;16.13;4.50;;;20.60;99.90;;;;;;5001114;28;20136;-82
2022/06/11 09:22:45;;;;;;;20.40;5.68;;;20.60;99.90;;;;;;5017077;28;20068;-83
2022/06/11 09:25:14;;;;;;;18.58;4.60;;;20.50;99.90;;;;;;5034185;28;20049;-84
2022/06/11 09:28:03;;;;;;;15.77;4.00;;;20.50;99.90;;;;;;5018299;28;20054;-82
2022/06/11 09:30:59;;;;;;;17.75;4.50;;;20.40;99.90;;;;;;5012050;28;20049;-84
2022/06/11 09:33:41;;;;;;;15.45;4.78;;;20.40;99.90;;;;;;5010794;28;20398;-84
2022/06/11 09:36:16;;;;;;;15.48;3.90;;;20.40;99.90;;;;;;5026213;28;20046;-82
2022/06/11 09:39:19;;;;;;;17.05;3.97;;;20.30;99.90;;;;;;5008311;28;20045;-84
2022/06/11 09:41:57;;;;;;;14.95;4.32;;;20.30;99.90;;;;;;5006799;28;20076;-81
2022/06/11 09:45:00;;;;;;;14.35;3.60;;;20.40;99.90;;;;;;5026853;28;20053;-85
2022/06/11 09:47:44;;;;;;;16.58;4.40;;;20.50;99.90;;;;;;5002640;28;20456;-83
2022/06/11 09:50:34;;;;;;;13.93;4.55;;;20.50;99.90;;;;;;5010438;28;20409;-83
2022/06/11 09:53:21;;;;;;;13.73;3.88;;;20.60;99.90;;;;;;5003429;28;20045;-84
2022/06/11 09:56:00;;;;;;;15.60;3.65;;;20.60;99.90;;;;;;5016436;28;20134;-83
2022/06/11 09:58:51;;;;;;;13.45;3.88;;;20.70;99.90;;;;;;5034569;28;20045;-81
2022/06/11 10:01:21;;;;;;;15.98;3.70;;;20.90;99.90;;;;;;5015140;28;20053;-83
2022/06/11 10:04:03;;;;;;;14.65;3.75;;;20.90;99.90;;;;;;5033789;28;20124;-83
2022/06/11 10:06:41;;;;;;;13.75;3.90;;;20.90;99.90;;;;;;5013545;28;20041;-84
2022/06/11 10:09:18;;;;;;;13.90;3.40;;;20.90;99.90;;;;;;5014984;28;20498;-82
2022/06/11 10:12:14;;;;;;;13.95;3.78;;;20.80;99.90;;;;;;5007763;28;20488;-82
2022/06/11 10:15:10;;;;;;;13.27;3.45;;;20.90;99.90;;;;;;4990638;28;20128;-83
2022/06/11 10:18:17;;;;;;;12.52;3.33;;;20.90;99.90;;;;;;5012485;28;20049;-83
2022/06/11 10:20:50;;;;;;;11.73;3.53;;;21.00;99.90;;;;;;4998018;28;20288;-83
2022/06/11 10:23:38;;;;;;;15.77;3.42;;;21.10;99.90;;;;;;5012100;28;20104;-82
2022/06/11 10:26:06;;;;;;;13.18;3.35;;;21.10;99.90;;;;;;5013401;28;20046;-84
2022/06/11 10:29:06;;;;;;;12.30;3.70;;;21.20;99.90;;;;;;5013342;28;20049;-83
2022/06/11 10:31:39;;;;;;;12.38;3.28;;;21.20;99.90;;;;;;5012735;28;20092;-82
2022/06/11 10:34:17;;;;;;;11.70;3.13;;;21.20;99.90;;;;;;5013770;28;20052;-83
2022/06/11 10:36:52;;;;;;;10.43;2.80;;;21.20;99.90;;;;;;5013753;28;20046;-84
2022/06/11 10:39:29;;;;;;;13.45;2.97;;;21.30;99.90;;;;;;5012924;28;20136;-84
2022/06/11 10:42:04;;;;;;;11.75;2.78;;;21.30;99.90;;;;;;5013354;28;20045;-82
2022/06/11 10:44:47;;;;;;;11.68;2.90;;;21.30;99.90;;;;;;5012558;28;20104;-82
2022/06/11 10:47:28;;;;;;;10.52;2.85;;;21.20;99.90;;;;;;5009671;28;20112;-83
2022/06/11 10:50:09;;;;;;;13.85;3.92;;;21.20;99.90;;;;;;5017558;28;20040;-83
2022/06/11 10:53:00;;;;;;;12.18;2.60;;;21.30;99.90;;;;;;5013909;28;20418;-83
2022/06/11 10:55:44;;;;;;;11.63;3.03;;;21.30;99.90;;;;;;5012509;28;20054;-84
2022/06/11 10:58:28;;;;;;;10.95;2.65;;;21.20;99.90;;;;;;5012845;28;20427;-84
2022/06/11 11:00:58;;;;;;;13.35;3.38;;;21.20;99.90;;;;;;4996119;28;20073;-83
2022/06/11 11:03:29;;;;;;;12.48;2.85;;;21.10;99.90;;;;;;5011971;28;20057;-84
2022/06/11 11:06:08;;;;;;;12.98;2.80;;;21.10;99.90;;;;;;5012035;28;20045;-83
2022/06/11 11:08:49;;;;;;;11.15;2.75;;;21.00;99.90;;;;;;5012862;28;20062;-84
2022/06/11 11:11:15;;;;;;;13.02;2.97;;;21.00;99.90;;;;;;4989123;28;20065;-83
2022/06/11 11:13:44;;;;;;;13.20;3.40;;;20.90;99.90;;;;;;5005804;28;20042;-84
2022/06/11 11:16:12;;;;;;;13.35;3.08;;;20.90;99.90;;;;;;4988782;28;20092;-82
2022/06/11 11:18:50;;;;;;;13.13;3.13;;;20.90;99.90;;;;;;5005081;28;20103;-82
2022/06/11 11:21:29;;;;;;;12.23;3.03;;;20.80;99.90;;;;;;5005701;28;20172;-82
2022/06/11 11:24:04;;;;;;;11.82;3.00;;;20.90;99.90;;;;;;5017231;28;20057;-84
2022/06/11 11:26:41;;;;;;;14.95;2.85;;;20.90;99.90;;;;;;4991558;28;20140;-83
2022/06/11 11:29:21;;;;;;;13.95;3.17;;;20.90;99.90;;;;;;5008596;28;20490;-83
2022/06/11 11:31:50;;;;;;;11.90;2.80;;;20.90;99.90;;;;;;5007464;28;20045;-82
2022/06/11 11:34:27;;;;;;;13.98;3.55;;;20.90;99.90;;;;;;5024606;28;20057;-82
2022/06/11 11:36:58;;;;;;;12.23;3.15;;;21.00;99.90;;;;;;5027285;28;20152;-83
2022/06/11 11:39:33;;;;;;;12.57;2.90;;;20.90;99.90;;;;;;5010165;28;20041;-85
2022/06/11 11:42:10;;;;;;;11.15;3.00;;;21.00;99.90;;;;;;5011535;28;20386;-84
2022/06/11 11:44:51;;;;;;;13.20;3.42;;;21.00;99.90;;;;;;5010192;28;20449;-84
2022/06/11 11:47:35;;;;;;;12.98;2.90;;;21.00;99.90;;;;;;5010990;28;20044;-82
2022/06/11 11:50:07;;;;;;;13.98;3.00;;;21.00;99.90;;;;;;5026096;28;20084;-84
2022/06/11 11:52:41;;;;;;;14.75;3.30;;;20.90;99.90;;;;;;5010596;28;20436;-82
2022/06/11 11:55:29;;;;;;;11.23;3.25;;;20.90;99.90;;;;;;5029288;28;20050;-83
2022/06/11 11:58:05;;;;;;;12.65;3.10;;;21.00;99.90;;;;;;5029093;28;20045;-82
2022/06/11 12:01:00;;;;;;;12.73;3.45;;;21.00;99.90;;;;;;5027749;28;20049;-81
2022/06/11 12:03:30;;;;;;;14.50;3.20;;;21.00;99.90;;;;;;5008908;28;20068;-82
2022/06/11 12:05:58;;;;;;;10.80;2.90;;;20.90;99.90;;;;;;5010168;28;20041;-83
2022/06/11 12:08:31;;;;;;;14.38;3.60;;;20.80;99.90;;;;;;5026943;28;20490;-84
2022/06/11 12:11:01;;;;;;;13.65;2.78;;;20.90;99.90;;;;;;5029350;28;20083;-83
2022/06/11 12:13:45;;;;;;;9.68;2.70;;;21.00;99.90;;;;;;5028351;28;20095;-83
2022/06/11 12:16:39;;;;;;;13.25;2.72;;;20.90;99.90;;;;;;5033609;28;20509;-82
2022/06/11 12:19:26;;;;;;;14.48;2.95;;;20.90;99.90;;;;;;5009591;28;20384;-82
2022/06/11 12:22:02;;;;;;;11.75;2.95;;;20.90;99.90;;;;;;5009922;28;20178;-92
2022/06/11 12:24:35;;;;;;;10.63;2.58;;;20.90;99.90;;;;;;5005010;28;20060;-86
2022/06/11 12:27:08;;;;;;;13.77;2.75;;;20.90;99.90;;;;;;5011957;28;20053;-85
2022/06/11 12:29:50;;;;;;;10.98;2.70;;;20.90;99.90;;;;;;5008997;28;20098;-86
2022/06/11 12:32:20;;;;;;;11.05;2.80;;;20.90;99.90;;;;;;4994765;28;20041;-88
2022/06/11 12:34:46;;;;;;;10.90;2.90;;;20.90;99.90;;;;;;5027374;28;20046;-86
2022/06/11 12:37:26;;;;;;;9.10;2.30;;;20.90;99.90;;;;;;5024734;28;20398;-90
2022/06/11 12:40:15;;;;;;;11.77;3.08;;;20.90;99.90;;;;;;5010073;28;20049;-89
2022/06/11 12:42:43;;;;;;;9.75;2.80;;;20.90;99.90;;;;;;5008512;28;20045;-88
2022/06/11 12:45:41;;;;;;;13.38;3.17;;;20.90;99.90;;;;;;5009052;28;20041;-86
2022/06/11 12:48:34;;;;;;;13.13;2.92;;;20.90;99.90;;;;;;5024683;28;20187;-88
2022/06/11 12:51:29;;;;;;;10.93;2.67;;;21.00;99.90;;;;;;5005424;28;20491;-86
2022/06/11 12:54:07;;;;;;;10.95;3.03;;;20.90;99.90;;;;;;5022434;28;20423;-88
2022/06/11 12:56:51;;;;;;;11.25;3.63;;;21.00;99.90;;;;;;5014023;28;20099;-89
2022/06/11 12:59:42;;;;;;;12.27;2.88;;;21.00;99.90;;;;;;5008139;28;20393;-87
2022/06/11 13:02:32;;;;;;;9.98;2.72;;;21.00;99.90;;;;;;5008931;28;20057;-85
2022/06/11 13:05:39;;;;;;;11.95;3.17;;;21.10;99.90;;;;;;5007580;28;20097;-86